createdAt,value
2018-08-03T00:00:05.891Z,0.00
2018-08-03T00:01:05.930Z,0.00
2018-08-03T00:02:05.968Z,0.00
2018-08-03T00:03:06.004Z,0.00
2018-08-03T00:04:06.043Z,0.00
2018-08-03T00:05:06.080Z,0.00
2018-08-03T00:06:06.118Z,0.00
2018-08-03T00:07:06.157Z,0.00
2018-08-03T00:08:06.193Z,0.00
2018-08-03T00:09:06.231Z,0.00
2018-08-03T00:10:06.271Z,0.00
2018-08-03T00:11:06.306Z,0.00
2018-08-03T00:12:06.344Z,0.00
2018-08-03T00:13:06.382Z,0.00
2018-08-03T00:14:06.423Z,0.00
2018-08-03T00:15:06.456Z,0.00
2018-08-03T00:16:06.494Z,0.00
2018-08-03T00:17:06.533Z,0.00
2018-08-03T00:18:06.569Z,0.00
2018-08-03T00:19:06.611Z,0.00
2018-08-03T00:20:06.646Z,0.00
2018-08-03T00:21:06.683Z,0.00
2018-08-03T00:22:06.721Z,0.00
2018-08-03T00:23:06.758Z,0.00
2018-08-03T00:24:06.796Z,0.00
2018-08-03T00:25:06.836Z,0.00
2018-08-03T00:26:06.872Z,0.00
2018-08-03T00:27:06.909Z,0.00
2018-08-03T00:28:06.946Z,0.00
2018-08-03T00:29:06.984Z,0.00
2018-08-03T00:30:07.022Z,0.00
2018-08-03T00:31:07.061Z,0.00
2018-08-03T00:32:07.097Z,0.00
2018-08-03T00:33:07.135Z,0.00
2018-08-03T00:34:07.172Z,0.00
2018-08-03T00:35:07.209Z,0.00
2018-08-03T00:36:07.246Z,0.00
2018-08-03T00:37:07.284Z,0.00
2018-08-03T00:38:07.323Z,0.00
2018-08-03T00:39:07.359Z,0.00
2018-08-03T00:40:07.398Z,0.00
2018-08-03T00:41:07.436Z,0.00
2018-08-03T00:42:07.474Z,0.00
2018-08-03T00:43:07.511Z,0.00
2018-08-03T00:44:07.547Z,0.00
2018-08-03T00:45:07.586Z,0.00
2018-08-03T00:46:07.624Z,0.00
2018-08-03T00:47:07.660Z,0.00
2018-08-03T00:48:07.699Z,0.00
2018-08-03T00:49:07.735Z,0.00
2018-08-03T00:50:07.773Z,0.00
2018-08-03T00:51:08.618Z,0.00
2018-08-03T00:52:07.848Z,0.00
2018-08-03T00:53:07.885Z,0.00
2018-08-03T00:54:07.924Z,0.00
2018-08-03T00:55:07.962Z,0.00
2018-08-03T00:56:07.998Z,0.00
2018-08-03T00:57:08.036Z,0.00
2018-08-03T00:58:08.073Z,0.00
2018-08-03T00:59:08.110Z,0.00
2018-08-03T01:00:08.147Z,0.00
2018-08-03T01:01:08.186Z,0.00
2018-08-03T01:02:08.223Z,0.00
2018-08-03T01:03:08.260Z,0.00
2018-08-03T01:04:08.297Z,0.00
2018-08-03T01:05:08.351Z,0.00
2018-08-03T01:06:08.373Z,0.00
2018-08-03T01:07:08.410Z,0.00
2018-08-03T01:08:08.447Z,0.00
2018-08-03T01:09:08.485Z,0.00
2018-08-03T01:10:08.522Z,0.00
2018-08-03T01:11:08.559Z,0.00
2018-08-03T01:12:08.596Z,0.00
2018-08-03T01:13:08.638Z,0.00
2018-08-03T01:14:08.672Z,0.00
2018-08-03T01:15:08.707Z,0.00
2018-08-03T01:16:08.746Z,0.00
2018-08-03T01:17:08.784Z,0.00
2018-08-03T01:18:08.823Z,0.00
2018-08-03T01:19:08.860Z,0.00
2018-08-03T01:20:08.896Z,0.00
2018-08-03T01:21:08.934Z,0.00
2018-08-03T01:22:08.971Z,0.00
2018-08-03T01:23:09.008Z,0.00
2018-08-03T01:24:09.045Z,0.00
2018-08-03T01:25:09.084Z,0.00
2018-08-03T01:26:09.121Z,0.00
2018-08-03T01:27:09.157Z,0.00
2018-08-03T01:28:09.194Z,0.00
2018-08-03T01:29:09.235Z,0.00
2018-08-03T01:30:09.269Z,0.00
2018-08-03T01:31:09.306Z,0.00
2018-08-03T01:32:09.367Z,0.00
2018-08-03T01:33:09.608Z,0.00
2018-08-03T01:35:22.045Z,0.00
2018-08-03T01:36:22.082Z,0.00
2018-08-03T01:37:22.118Z,0.00
2018-08-03T01:38:22.156Z,0.00
2018-08-03T01:39:22.192Z,0.00
2018-08-03T01:40:22.232Z,0.00
2018-08-03T01:41:22.270Z,0.00
2018-08-03T01:42:22.307Z,0.00
2018-08-03T01:43:22.341Z,0.00
2018-08-03T01:44:22.379Z,0.00
2018-08-03T01:45:22.416Z,0.00
2018-08-03T01:46:22.456Z,0.00
2018-08-03T01:47:22.490Z,0.00
2018-08-03T01:48:22.528Z,0.00
2018-08-03T01:49:22.566Z,0.00
2018-08-03T01:50:22.602Z,0.00
2018-08-03T01:51:22.638Z,0.00
2018-08-03T01:52:22.677Z,0.00
2018-08-03T01:53:22.712Z,0.00
2018-08-03T01:54:22.750Z,0.00
2018-08-03T01:55:22.787Z,0.00
2018-08-03T01:57:22.860Z,0.00
2018-08-03T01:58:22.898Z,0.00
2018-08-03T01:59:22.935Z,0.00
2018-08-03T02:00:22.973Z,0.00
2018-08-03T02:01:23.009Z,0.00
2018-08-03T02:02:23.046Z,0.00
2018-08-03T02:03:23.135Z,0.00
2018-08-03T02:04:23.121Z,0.00
2018-08-03T02:05:23.157Z,0.00
2018-08-03T02:06:23.194Z,0.00
2018-08-03T02:07:23.252Z,0.00
2018-08-03T02:08:23.268Z,0.00
2018-08-03T02:09:23.305Z,0.00
2018-08-03T02:10:23.342Z,0.00
2018-08-03T02:11:23.380Z,0.00
2018-08-03T02:12:23.419Z,0.00
2018-08-03T02:13:23.453Z,0.00
2018-08-03T02:14:23.491Z,0.00
2018-08-03T02:15:23.527Z,0.00
2018-08-03T02:16:23.564Z,0.00
2018-08-03T02:17:23.599Z,0.00
2018-08-03T02:18:23.640Z,0.00
2018-08-03T02:19:23.675Z,0.00
2018-08-03T02:20:23.712Z,0.00
2018-08-03T02:21:23.748Z,0.00
2018-08-03T02:22:23.785Z,0.00
2018-08-03T02:23:23.822Z,0.00
2018-08-03T02:24:23.861Z,0.00
2018-08-03T02:25:23.896Z,0.00
2018-08-03T02:26:23.933Z,0.00
2018-08-03T02:27:23.971Z,0.00
2018-08-03T02:28:24.009Z,0.00
2018-08-03T02:29:24.043Z,0.00
2018-08-03T02:30:24.081Z,0.00
2018-08-03T02:31:24.119Z,0.00
2018-08-03T02:32:24.155Z,0.00
2018-08-03T02:33:24.192Z,0.00
2018-08-03T02:34:24.228Z,0.00
2018-08-03T02:35:24.266Z,0.00
2018-08-03T02:36:24.303Z,0.00
2018-08-03T02:37:24.341Z,0.00
2018-08-03T02:38:24.376Z,0.00
2018-08-03T02:39:24.414Z,0.00
2018-08-03T02:40:24.452Z,0.00
2018-08-03T02:41:24.485Z,0.00
2018-08-03T02:42:24.523Z,0.00
2018-08-03T02:43:24.561Z,0.00
2018-08-03T02:44:24.602Z,0.00
2018-08-03T02:45:24.635Z,0.00
2018-08-03T02:46:24.671Z,0.00
2018-08-03T02:47:24.717Z,0.00
2018-08-03T02:48:24.745Z,0.00
2018-08-03T02:49:24.782Z,0.00
2018-08-03T02:50:24.818Z,0.00
2018-08-03T02:51:24.855Z,0.00
2018-08-03T02:52:24.892Z,0.00
2018-08-03T02:53:24.928Z,0.00
2018-08-03T02:54:24.967Z,0.00
2018-08-03T02:55:25.002Z,0.00
2018-08-03T02:56:25.039Z,0.00
2018-08-03T02:57:25.074Z,0.00
2018-08-03T02:58:25.112Z,0.00
2018-08-03T02:59:25.151Z,0.00
2018-08-03T03:00:25.186Z,0.00
2018-08-03T03:01:25.223Z,0.00
2018-08-03T03:02:25.258Z,0.00
2018-08-03T03:03:25.300Z,0.00
2018-08-03T03:04:25.338Z,0.00
2018-08-03T03:05:25.371Z,0.00
2018-08-03T03:06:25.407Z,0.00
2018-08-03T03:07:25.482Z,0.00
2018-08-03T03:08:25.481Z,0.00
2018-08-03T03:09:25.516Z,0.00
2018-08-03T03:10:25.554Z,0.00
2018-08-03T03:11:25.590Z,0.00
2018-08-03T03:12:25.626Z,0.00
2018-08-03T03:13:25.663Z,0.00
2018-08-03T03:14:25.702Z,0.00
2018-08-03T03:15:25.737Z,0.00
2018-08-03T03:16:25.774Z,0.00
2018-08-03T03:17:25.810Z,0.00
2018-08-03T03:18:25.847Z,0.00
2018-08-03T03:19:25.963Z,0.00
2018-08-03T03:20:25.921Z,0.00
2018-08-03T03:21:25.960Z,0.00
2018-08-03T03:22:25.995Z,0.00
2018-08-03T03:23:26.033Z,0.00
2018-08-03T03:24:26.067Z,0.00
2018-08-03T03:25:26.107Z,0.00
2018-08-03T03:26:26.142Z,0.00
2018-08-03T03:27:26.177Z,0.00
2018-08-03T03:28:26.213Z,0.00
2018-08-03T03:29:26.249Z,0.00
2018-08-03T03:30:26.287Z,0.00
2018-08-03T03:31:26.324Z,4.00
2018-08-03T03:32:26.360Z,4.00
2018-08-03T03:33:26.400Z,0.00
2018-08-03T03:34:26.433Z,4.00
2018-08-03T03:35:26.469Z,4.00
2018-08-03T03:36:26.508Z,4.00
2018-08-03T03:37:26.543Z,4.00
2018-08-03T03:38:26.579Z,4.00
2018-08-03T03:39:26.620Z,8.00
2018-08-03T03:40:26.654Z,8.00
2018-08-03T03:41:26.688Z,12.00
2018-08-03T03:42:26.727Z,12.00
2018-08-03T03:43:26.762Z,12.00
2018-08-03T03:44:26.805Z,20.00
2018-08-03T03:45:26.844Z,20.00
2018-08-03T03:46:26.872Z,24.00
2018-08-03T03:47:26.909Z,28.00
2018-08-03T03:48:26.945Z,32.00
2018-08-03T03:49:26.983Z,36.00
2018-08-03T03:50:27.019Z,44.00
2018-08-03T03:51:27.056Z,48.00
2018-08-03T03:52:27.094Z,56.00
2018-08-03T03:53:27.128Z,68.00
2018-08-03T03:54:27.166Z,76.00
2018-08-03T03:55:27.201Z,88.00
2018-08-03T03:56:27.238Z,104.00
2018-08-03T03:57:27.275Z,116.00
2018-08-03T03:58:27.312Z,124.00
2018-08-03T03:59:27.348Z,144.00
2018-08-03T04:00:27.384Z,160.00
2018-08-03T04:01:27.421Z,180.00
2018-08-03T04:02:27.457Z,196.00
2018-08-03T04:03:27.494Z,216.00
2018-08-03T04:04:27.556Z,240.00
2018-08-03T04:05:27.566Z,260.00
2018-08-03T04:06:27.602Z,288.00
2018-08-03T04:07:27.640Z,316.00
2018-08-03T04:08:27.678Z,340.00
2018-08-03T04:09:27.733Z,368.00
2018-08-03T04:10:27.761Z,396.00
2018-08-03T04:11:27.785Z,424.00
2018-08-03T04:12:28.352Z,460.00
2018-08-03T04:13:27.857Z,488.00
2018-08-03T04:15:27.931Z,556.00
2018-08-03T04:16:27.990Z,592.00
2018-08-03T04:17:28.029Z,624.00
2018-08-03T04:18:28.065Z,664.00
2018-08-03T04:19:28.099Z,700.00
2018-08-03T04:20:28.141Z,740.00
2018-08-03T04:21:28.173Z,776.00
2018-08-03T04:23:28.244Z,856.00
2018-08-03T04:25:28.314Z,940.00
2018-08-03T04:26:28.559Z,984.00
2018-08-03T04:27:28.370Z,1028.00
2018-08-03T04:28:28.709Z,1068.00
2018-08-03T04:29:28.868Z,1112.00
2018-08-03T04:30:28.502Z,1156.00
2018-08-03T04:32:28.778Z,1244.00
2018-08-03T04:34:28.644Z,1336.00
2018-08-03T04:36:29.122Z,1424.00
2018-08-03T04:37:29.164Z,1468.00
2018-08-03T04:38:28.993Z,1508.00
2018-08-03T04:39:28.829Z,1556.00
2018-08-03T04:41:28.900Z,1640.00
2018-08-03T04:45:29.353Z,1816.00
2018-08-03T04:47:29.326Z,1900.00
2018-08-03T04:48:29.159Z,1940.00
2018-08-03T04:49:29.192Z,1984.00
2018-08-03T04:50:29.432Z,2024.00
2018-08-03T04:51:29.267Z,2072.00
2018-08-03T04:52:29.504Z,2108.00
2018-08-03T04:53:29.341Z,2152.00
2018-08-03T04:54:29.577Z,2196.00
2018-08-03T04:55:29.411Z,2240.00
2018-08-03T04:56:29.653Z,2292.00
2018-08-03T04:59:29.535Z,2456.00
2018-08-03T05:00:29.572Z,2512.00
2018-08-03T05:01:29.607Z,2568.00
2018-08-03T05:02:29.644Z,2616.00
2018-08-03T05:03:29.681Z,2668.00
2018-08-03T05:04:29.718Z,2716.00
2018-08-03T05:05:29.755Z,2760.00
2018-08-03T05:06:29.790Z,2808.00
2018-08-03T05:07:29.827Z,2856.00
2018-08-03T05:08:29.864Z,2900.00
2018-08-03T05:09:29.900Z,2944.00
2018-08-03T05:10:29.937Z,2984.00
2018-08-03T05:11:29.974Z,3028.00
2018-08-03T05:12:30.012Z,3072.00
2018-08-03T05:13:30.051Z,3112.00
2018-08-03T05:14:30.085Z,3148.00
2018-08-03T05:15:30.145Z,3196.00
2018-08-03T05:16:30.158Z,3240.00
2018-08-03T05:17:30.193Z,3280.00
2018-08-03T05:18:30.235Z,3320.00
2018-08-03T05:19:30.268Z,3356.00
2018-08-03T05:20:30.305Z,3396.00
2018-08-03T05:21:30.342Z,3436.00
2018-08-03T05:22:30.378Z,3476.00
2018-08-03T05:23:30.415Z,3516.00
2018-08-03T05:24:30.453Z,3556.00
2018-08-03T05:25:30.489Z,3596.00
2018-08-03T05:26:30.525Z,3632.00
2018-08-03T05:27:30.562Z,3672.00
2018-08-03T05:28:30.601Z,3712.00
2018-08-03T05:29:30.637Z,3748.00
2018-08-03T05:30:30.675Z,3784.00
2018-08-03T05:31:30.712Z,3820.00
2018-08-03T05:32:30.748Z,3856.00
2018-08-03T05:33:30.785Z,3896.00
2018-08-03T05:34:30.823Z,3936.00
2018-08-03T05:35:30.949Z,3972.00
2018-08-03T05:36:30.902Z,4012.00
2018-08-03T05:37:30.938Z,4044.00
2018-08-03T05:38:30.972Z,4076.00
2018-08-03T05:39:31.010Z,4104.00
2018-08-03T05:40:31.047Z,4140.00
2018-08-03T05:41:31.083Z,4164.00
2018-08-03T05:42:31.165Z,4188.00
2018-08-03T05:43:31.160Z,4208.00
2018-08-03T05:44:31.196Z,4256.00
2018-08-03T05:45:31.248Z,4288.00
2018-08-03T05:46:31.273Z,4316.00
2018-08-03T05:47:31.309Z,4344.00
2018-08-03T05:48:31.346Z,4376.00
2018-08-03T05:49:31.381Z,4396.00
2018-08-03T05:50:31.423Z,4432.00
2018-08-03T05:51:31.459Z,4464.00
2018-08-03T05:52:31.576Z,4536.00
2018-08-03T05:53:31.534Z,4576.00
2018-08-03T05:54:31.572Z,4620.00
2018-08-03T05:55:31.609Z,4664.00
2018-08-03T05:56:31.648Z,4700.00
2018-08-03T05:57:31.684Z,4732.00
2018-08-03T05:58:31.723Z,4776.00
2018-08-03T05:59:31.763Z,4792.00
2018-08-03T06:00:31.798Z,4780.00
2018-08-03T06:01:31.835Z,4804.00
2018-08-03T06:02:31.874Z,4844.00
2018-08-03T06:03:31.912Z,4864.00
2018-08-03T06:04:31.950Z,4904.00
2018-08-03T06:05:31.987Z,4936.00
2018-08-03T06:06:32.026Z,4968.00
2018-08-03T06:07:32.064Z,5012.00
2018-08-03T06:08:32.102Z,5048.00
2018-08-03T06:09:32.147Z,5076.00
2018-08-03T06:10:32.178Z,5108.00
2018-08-03T06:11:32.216Z,5120.00
2018-08-03T06:12:32.255Z,5156.00
2018-08-03T06:13:32.292Z,5212.00
2018-08-03T06:14:32.330Z,5212.00
2018-08-03T06:15:32.369Z,5260.00
2018-08-03T06:16:32.408Z,5296.00
2018-08-03T06:17:32.445Z,5248.00
2018-08-03T06:18:32.484Z,5360.00
2018-08-03T06:19:32.523Z,5396.00
2018-08-03T06:20:32.577Z,5432.00
2018-08-03T06:21:32.598Z,5468.00
2018-08-03T06:22:32.637Z,5500.00
2018-08-03T06:23:32.679Z,5532.00
2018-08-03T06:24:32.715Z,5564.00
2018-08-03T06:25:32.753Z,5600.00
2018-08-03T06:26:32.791Z,5628.00
2018-08-03T06:27:32.830Z,5648.00
2018-08-03T06:28:32.896Z,5684.00
2018-08-03T06:29:32.951Z,5720.00
2018-08-03T06:30:32.946Z,5756.00
2018-08-03T06:31:32.986Z,5788.00
2018-08-03T06:32:33.022Z,5816.00
2018-08-03T06:33:33.061Z,5848.00
2018-08-03T06:34:33.101Z,5880.00
2018-08-03T06:35:33.140Z,5908.00
2018-08-03T06:36:33.179Z,5940.00
2018-08-03T06:37:33.216Z,5972.00
2018-08-03T06:38:33.257Z,6004.00
2018-08-03T06:39:33.297Z,6040.00
2018-08-03T06:40:33.336Z,6076.00
2018-08-03T06:41:33.372Z,6124.00
2018-08-03T06:42:33.411Z,6160.00
2018-08-03T06:43:33.451Z,6196.00
2018-08-03T06:44:33.492Z,6236.00
2018-08-03T06:45:33.528Z,6264.00
2018-08-03T06:46:33.568Z,6300.00
2018-08-03T06:47:33.608Z,6328.00
2018-08-03T06:48:33.744Z,6360.00
2018-08-03T06:49:33.686Z,6392.00
2018-08-03T06:50:33.725Z,6424.00
2018-08-03T06:51:33.973Z,6460.00
2018-08-03T06:52:33.803Z,6492.00
2018-08-03T06:53:33.843Z,6532.00
2018-08-03T06:54:33.883Z,6568.00
2018-08-03T06:55:33.923Z,6600.00
2018-08-03T06:56:33.962Z,6628.00
2018-08-03T06:57:34.085Z,6668.00
2018-08-03T06:58:34.044Z,6696.00
2018-08-03T06:59:34.082Z,6732.00
2018-08-03T07:00:34.125Z,6772.00
2018-08-03T07:01:34.160Z,6804.00
2018-08-03T07:02:34.201Z,6844.00
2018-08-03T07:03:34.242Z,6888.00
2018-08-03T07:04:34.328Z,6928.00
2018-08-03T07:05:34.320Z,6968.00
2018-08-03T07:06:34.360Z,7008.00
2018-08-03T07:07:34.400Z,7048.00
2018-08-03T07:08:34.493Z,7096.00
2018-08-03T07:09:34.480Z,7144.00
2018-08-03T07:10:34.520Z,7188.00
2018-08-03T07:11:34.560Z,7232.00
2018-08-03T07:12:34.603Z,7276.00
2018-08-03T07:13:34.639Z,7324.00
2018-08-03T07:14:34.703Z,7364.00
2018-08-03T07:15:34.720Z,7412.00
2018-08-03T07:16:34.760Z,7460.00
2018-08-03T07:17:34.799Z,7496.00
2018-08-03T07:18:34.839Z,7544.00
2018-08-03T07:19:34.879Z,7588.00
2018-08-03T07:20:35.052Z,7632.00
2018-08-03T07:21:34.958Z,7672.00
2018-08-03T07:22:34.999Z,7720.00
2018-08-03T07:23:35.039Z,7768.00
2018-08-03T07:24:35.078Z,7812.00
2018-08-03T07:25:35.118Z,7856.00
2018-08-03T07:26:35.158Z,7900.00
2018-08-03T07:27:35.199Z,7948.00
2018-08-03T07:28:35.236Z,7992.00
2018-08-03T07:29:35.277Z,8044.00
2018-08-03T07:30:35.318Z,8092.00
2018-08-03T07:31:35.411Z,8140.00
2018-08-03T07:32:35.400Z,8184.00
2018-08-03T07:33:35.436Z,8232.00
2018-08-03T07:34:35.476Z,8284.00
2018-08-03T07:35:35.517Z,8344.00
2018-08-03T07:36:35.556Z,8396.00
2018-08-03T07:37:35.595Z,8460.00
2018-08-03T07:38:35.638Z,8516.00
2018-08-03T07:39:35.675Z,8572.00
2018-08-03T07:40:35.717Z,8628.00
2018-08-03T07:41:35.754Z,8684.00
2018-08-03T07:42:35.795Z,8744.00
2018-08-03T07:43:35.898Z,8804.00
2018-08-03T07:44:35.894Z,8860.00
2018-08-03T07:45:35.915Z,8920.00
2018-08-03T07:46:35.954Z,8976.00
2018-08-03T07:47:35.995Z,9040.00
2018-08-03T07:48:36.035Z,9100.00
2018-08-03T07:49:36.075Z,9168.00
2018-08-03T07:50:36.115Z,9220.00
2018-08-03T07:51:36.157Z,9300.00
2018-08-03T07:52:36.243Z,9364.00
2018-08-03T07:53:36.240Z,9420.00
2018-08-03T07:54:36.275Z,9500.00
2018-08-03T07:55:36.317Z,9572.00
2018-08-03T07:56:36.356Z,9628.00
2018-08-03T07:57:36.396Z,9696.00
2018-08-03T07:58:36.436Z,9772.00
2018-08-03T07:59:36.477Z,9820.00
2018-08-03T08:00:36.518Z,9888.00
2018-08-03T08:01:36.556Z,9968.00
2018-08-03T08:02:36.597Z,10052.00
2018-08-03T08:03:36.638Z,10140.00
2018-08-03T08:04:36.679Z,10200.00
2018-08-03T08:05:36.717Z,10276.00
2018-08-03T08:06:36.759Z,10340.00
2018-08-03T08:07:36.800Z,10416.00
2018-08-03T08:08:36.839Z,10508.00
2018-08-03T08:09:36.943Z,10572.00
2018-08-03T08:10:36.921Z,10668.00
2018-08-03T08:11:36.963Z,10752.00
2018-08-03T08:12:37.003Z,10832.00
2018-08-03T08:13:37.042Z,10904.00
2018-08-03T08:14:37.083Z,10988.00
2018-08-03T08:15:37.150Z,11084.00
2018-08-03T08:16:37.164Z,11172.00
2018-08-03T08:17:37.204Z,11240.00
2018-08-03T08:18:37.246Z,11316.00
2018-08-03T08:19:37.287Z,11416.00
2018-08-03T08:20:37.328Z,11484.00
2018-08-03T08:21:37.367Z,11584.00
2018-08-03T08:22:37.408Z,11704.00
2018-08-03T08:23:37.450Z,11760.00
2018-08-03T08:24:37.490Z,11828.00
2018-08-03T08:25:37.530Z,11884.00
2018-08-03T08:26:37.571Z,11968.00
2018-08-03T08:27:37.612Z,12056.00
2018-08-03T08:28:37.656Z,12156.00
2018-08-03T08:29:37.695Z,12236.00
2018-08-03T08:30:37.735Z,12320.00
2018-08-03T08:31:37.791Z,12388.00
2018-08-03T08:32:37.819Z,12456.00
2018-08-03T08:33:37.859Z,12568.00
2018-08-03T08:34:37.908Z,12676.00
2018-08-03T08:35:37.942Z,12732.00
2018-08-03T08:36:37.984Z,12852.00
2018-08-03T08:37:38.023Z,12904.00
2018-08-03T08:38:38.065Z,12940.00
2018-08-03T08:39:38.107Z,13000.00
2018-08-03T08:40:38.149Z,13120.00
2018-08-03T08:41:38.190Z,13188.00
2018-08-03T08:42:38.232Z,13284.00
2018-08-03T08:43:38.326Z,13336.00
2018-08-03T08:44:38.315Z,13416.00
2018-08-03T08:45:38.356Z,13524.00
2018-08-03T08:46:38.397Z,13600.00
2018-08-03T08:47:38.440Z,13648.00
2018-08-03T08:48:38.483Z,13668.00
2018-08-03T08:49:38.524Z,13728.00
2018-08-03T08:50:38.568Z,13788.00
2018-08-03T08:51:38.607Z,13864.00
2018-08-03T08:52:38.649Z,13924.00
2018-08-03T08:53:38.690Z,14004.00
2018-08-03T08:54:38.791Z,14056.00
2018-08-03T08:55:38.776Z,14120.00
2018-08-03T08:56:38.818Z,14196.00
2018-08-03T08:57:38.859Z,14280.00
2018-08-03T08:58:38.903Z,14392.00
2018-08-03T08:59:39.000Z,14432.00
2018-08-03T09:00:38.987Z,14520.00
2018-08-03T09:01:39.030Z,14576.00
2018-08-03T09:02:39.296Z,14608.00
2018-08-03T09:03:39.114Z,14656.00
2018-08-03T09:04:39.157Z,14724.00
2018-08-03T09:05:39.199Z,14784.00
2018-08-03T09:06:39.244Z,14856.00
2018-08-03T09:07:39.333Z,14940.00
2018-08-03T09:08:39.328Z,14996.00
2018-08-03T09:09:39.390Z,15016.00
2018-08-03T09:10:39.412Z,15056.00
2018-08-03T09:11:39.456Z,15112.00
2018-08-03T09:12:39.558Z,15140.00
2018-08-03T09:13:39.945Z,15272.00
2018-08-03T09:14:39.584Z,15328.00
2018-08-03T09:15:39.649Z,15372.00
2018-08-03T09:16:39.671Z,15436.00
2018-08-03T09:17:39.714Z,15504.00
2018-08-03T09:18:39.770Z,15588.00
2018-08-03T09:19:39.801Z,15648.00
2018-08-03T09:20:39.844Z,15692.00
2018-08-03T09:21:39.886Z,15788.00
2018-08-03T09:22:39.931Z,15868.00
2018-08-03T09:23:39.974Z,15892.00
2018-08-03T09:24:40.102Z,15968.00
2018-08-03T09:25:40.061Z,16048.00
2018-08-03T09:26:40.104Z,16112.00
2018-08-03T09:27:40.149Z,16140.00
2018-08-03T09:28:40.193Z,16212.00
2018-08-03T09:29:40.236Z,16260.00
2018-08-03T09:30:40.278Z,16356.00
2018-08-03T09:31:40.323Z,16416.00
2018-08-03T09:32:40.373Z,16496.00
2018-08-03T09:33:40.411Z,16580.00
2018-08-03T09:34:40.464Z,16664.00
2018-08-03T09:35:40.500Z,16728.00
2018-08-03T09:36:40.545Z,16788.00
2018-08-03T09:37:40.587Z,16820.00
2018-08-03T09:38:40.632Z,16872.00
2018-08-03T09:39:40.676Z,16936.00
2018-08-03T09:40:40.722Z,16932.00
2018-08-03T09:41:40.767Z,17152.00
2018-08-03T09:42:40.809Z,17328.00
2018-08-03T09:43:40.853Z,17428.00
2018-08-03T09:44:40.898Z,17516.00
2018-08-03T09:45:40.944Z,17576.00
2018-08-03T09:46:40.986Z,17600.00
2018-08-03T09:47:41.032Z,17876.00
2018-08-03T09:48:41.076Z,18072.00
2018-08-03T09:49:41.120Z,18076.00
2018-08-03T09:50:41.168Z,18084.00
2018-08-03T09:51:41.214Z,18104.00
2018-08-03T09:52:41.256Z,18236.00
2018-08-03T09:53:41.321Z,18348.00
2018-08-03T09:54:41.345Z,18412.00
2018-08-03T09:55:41.389Z,18848.00
2018-08-03T09:56:41.434Z,19104.00
2018-08-03T09:57:41.478Z,19104.00
2018-08-03T09:58:41.524Z,19136.00
2018-08-03T09:59:41.568Z,19360.00
2018-08-03T10:00:41.614Z,19584.00
2018-08-03T10:01:41.661Z,19776.00
2018-08-03T10:02:41.704Z,19680.00
2018-08-03T10:03:41.748Z,19616.00
2018-08-03T10:04:41.794Z,19712.00
2018-08-03T10:05:41.839Z,19968.00
2018-08-03T10:06:41.885Z,20096.00
2018-08-03T10:07:41.930Z,20320.00
2018-08-03T10:08:41.976Z,20832.00
2018-08-03T10:09:42.348Z,21280.00
2018-08-03T10:11:42.110Z,21504.00
2018-08-03T10:12:42.190Z,21920.00
2018-08-03T10:13:42.203Z,23232.00
2018-08-03T10:14:42.246Z,40512.00
2018-08-03T10:15:42.293Z,64064.00
2018-08-03T10:16:42.338Z,53408.00
2018-08-03T10:17:42.408Z,85920.00
2018-08-03T10:18:42.430Z,88608.00
2018-08-03T10:19:42.480Z,94112.00
2018-08-03T10:20:42.523Z,91008.00
2018-08-03T10:21:42.569Z,89920.00
2018-08-03T10:22:42.617Z,88416.00
2018-08-03T10:23:42.894Z,93184.00
2018-08-03T10:24:42.714Z,98304.00
2018-08-03T10:25:42.761Z,95136.00
2018-08-03T10:26:42.811Z,90464.00
2018-08-03T10:27:42.860Z,95776.00
2018-08-03T10:28:42.910Z,94560.00
2018-08-03T10:29:42.980Z,84864.00
2018-08-03T10:30:43.009Z,77472.00
2018-08-03T10:31:43.060Z,73120.00
2018-08-03T10:32:43.109Z,70944.00
2018-08-03T10:33:43.162Z,70912.00
2018-08-03T10:34:43.212Z,80032.00
2018-08-03T10:35:43.262Z,92736.00
2018-08-03T10:36:43.315Z,99520.00
2018-08-03T10:37:43.366Z,102112.00
2018-08-03T10:38:43.418Z,105152.00
2018-08-03T10:39:43.472Z,106432.00
2018-08-03T10:40:43.526Z,107616.00
2018-08-03T10:41:43.576Z,106880.00
2018-08-03T10:42:43.691Z,107552.00
2018-08-03T10:43:43.683Z,83072.00
2018-08-03T10:44:43.736Z,32704.00
2018-08-03T10:45:43.789Z,107936.00
2018-08-03T10:46:43.842Z,106304.00
2018-08-03T10:47:43.896Z,109280.00
2018-08-03T10:48:43.976Z,106944.00
2018-08-03T10:49:44.002Z,104736.00
2018-08-03T10:50:44.055Z,109952.00
2018-08-03T10:51:44.111Z,110880.00
2018-08-03T10:52:44.166Z,103520.00
2018-08-03T10:53:44.218Z,99776.00
2018-08-03T10:54:44.277Z,100544.00
2018-08-03T10:55:44.325Z,103072.00
2018-08-03T10:56:44.381Z,97536.00
2018-08-03T10:57:44.433Z,94496.00
2018-08-03T10:58:44.487Z,102208.00
2018-08-03T10:59:44.542Z,108800.00
2018-08-03T11:00:44.596Z,104224.00
2018-08-03T11:01:44.664Z,101152.00
2018-08-03T11:02:44.705Z,105344.00
2018-08-03T11:03:44.759Z,108672.00
2018-08-03T11:04:44.814Z,112832.00
2018-08-03T11:05:44.868Z,112000.00
2018-08-03T11:06:44.926Z,104608.00
2018-08-03T11:07:44.976Z,105984.00
2018-08-03T11:08:45.032Z,111168.00
2018-08-03T11:09:45.090Z,111392.00
2018-08-03T11:10:45.140Z,112992.00
2018-08-03T11:11:45.195Z,118880.00
2018-08-03T11:12:45.248Z,115488.00
2018-08-03T11:13:45.366Z,113952.00
2018-08-03T11:14:45.358Z,110592.00
2018-08-03T11:15:45.416Z,112896.00
2018-08-03T11:16:45.468Z,116640.00
2018-08-03T11:17:45.521Z,115296.00
2018-08-03T11:18:45.577Z,110720.00
2018-08-03T11:19:45.641Z,112128.00
2018-08-03T11:20:45.690Z,112512.00
2018-08-03T11:21:45.764Z,110080.00
2018-08-03T11:22:45.798Z,109184.00
2018-08-03T11:23:45.853Z,115968.00
2018-08-03T11:24:45.908Z,113152.00
2018-08-03T11:25:45.963Z,109664.00
2018-08-03T11:26:46.019Z,104064.00
2018-08-03T11:27:46.277Z,103168.00
2018-08-03T11:28:46.130Z,108864.00
2018-08-03T11:29:46.239Z,114304.00
2018-08-03T11:30:46.241Z,115616.00
2018-08-03T11:31:46.298Z,112608.00
2018-08-03T11:32:46.353Z,106176.00
2018-08-03T11:33:46.408Z,96160.00
2018-08-03T11:34:46.465Z,114048.00
2018-08-03T11:35:46.521Z,106720.00
2018-08-03T11:36:46.577Z,106528.00
2018-08-03T11:37:46.633Z,112384.00
2018-08-03T11:38:46.690Z,112704.00
2018-08-03T11:39:46.748Z,114848.00
2018-08-03T11:40:46.854Z,117472.00
2018-08-03T11:41:46.855Z,117504.00
2018-08-03T11:42:46.911Z,114912.00
2018-08-03T11:44:47.050Z,50400.00
2018-08-03T11:45:47.118Z,106656.00
2018-08-03T11:46:47.157Z,111616.00
2018-08-03T11:48:47.248Z,112192.00
2018-08-03T11:49:47.305Z,109280.00
2018-08-03T11:50:47.359Z,109536.00
2018-08-03T11:51:47.416Z,107392.00
2018-08-03T11:52:47.472Z,105696.00
2018-08-03T11:53:47.527Z,111936.00
2018-08-03T11:54:47.583Z,113312.00
2018-08-03T11:55:47.642Z,109184.00
2018-08-03T11:56:47.699Z,22592.00
2018-08-03T11:57:47.751Z,97344.00
2018-08-03T11:58:47.810Z,118400.00
2018-08-03T11:59:47.864Z,120000.00
2018-08-03T12:00:47.945Z,118720.00
2018-08-03T12:01:47.995Z,115232.00
2018-08-03T12:02:48.029Z,112064.00
2018-08-03T12:03:48.085Z,114752.00
2018-08-03T12:04:48.143Z,117408.00
2018-08-03T12:05:48.197Z,112416.00
2018-08-03T12:06:48.253Z,107008.00
2018-08-03T12:07:48.309Z,107200.00
2018-08-03T12:08:48.366Z,42976.00
2018-08-03T12:09:48.421Z,27840.00
2018-08-03T12:10:48.477Z,97440.00
2018-08-03T12:11:48.534Z,74624.00
2018-08-03T12:12:48.589Z,50304.00
2018-08-03T12:13:48.644Z,27072.00
2018-08-03T12:14:48.700Z,110208.00
2018-08-03T12:15:48.756Z,27520.00
2018-08-03T12:16:48.815Z,26144.00
2018-08-03T12:17:48.894Z,114624.00
2018-08-03T12:18:48.920Z,113632.00
2018-08-03T12:19:48.973Z,78016.00
2018-08-03T12:20:49.028Z,20576.00
2018-08-03T12:21:49.135Z,19232.00
2018-08-03T12:22:49.135Z,18372.00
2018-08-03T12:23:52.879Z,66400.00
2018-08-03T12:24:49.241Z,122400.00
2018-08-03T12:25:49.295Z,123488.00
2018-08-03T12:26:49.365Z,121760.00
2018-08-03T12:27:49.405Z,121088.00
2018-08-03T12:28:49.453Z,120864.00
2018-08-03T12:29:49.508Z,119040.00
2018-08-03T12:30:49.559Z,112864.00
2018-08-03T12:31:49.612Z,111328.00
2018-08-03T12:32:49.713Z,112608.00
2018-08-03T12:33:49.718Z,111584.00
2018-08-03T12:34:49.775Z,106656.00